This is the latest recevied weather packets stored in our database for station/object AD6NH. If no packets are shown the sender has not sent any weather packets the latest 1 day(s).
| Time | Temp. | Humidity | Pressure | Rain* | Wind** | Luminosity | Snow |
|---|---|---|---|---|---|---|---|
| 1778027222 | 21.11° C | 38% | 1014.6 hPa | 0 mm | 2.24 m/s, 233° | - | - |
| 1778026622 | 21.11° C | 38% | 1014.6 hPa | 0 mm | 3.13 m/s, 233° | - | - |
| 1778026022 | 21.11° C | 38% | 1014.6 hPa | 0 mm | 1.34 m/s, 247° | - | - |
| 1778025422 | 21.11° C | 38% | 1014.6 hPa | 0 mm | 3.13 m/s, 243° | - | - |
| 1778024822 | 21.11° C | 38% | 1014.7 hPa | 0 mm | 1.79 m/s, 242° | - | - |
| 1778024222 | 21.67° C | 38% | 1014.8 hPa | 0 mm | 1.79 m/s, 255° | - | - |
| 1778023622 | 20.56° C | 43% | 1014.7 hPa | 0 mm | 2.68 m/s, 228° | - | - |
| 1778023022 | 20° C | 44% | 1014.8 hPa | 0 mm | 1.79 m/s, 255° | - | - |
| 1778022422 | 20.56° C | 43% | 1014.9 hPa | 0 mm | 2.24 m/s, 238° | - | - |
| 1778021822 | 21.11° C | 42% | 1014.9 hPa | 0 mm | 3.58 m/s, 248° | - | - |
| 1778021222 | 20.56° C | 44% | 1014.9 hPa | 0 mm | 2.68 m/s, 220° | - | - |
| 1778020622 | 21.11° C | 42% | 1015 hPa | 0 mm | 1.79 m/s, 183° | - | - |
| 1778020022 | 21.11° C | 42% | 1015 hPa | 0 mm | 1.34 m/s, 194° | - | - |
| 1778019422 | 21.67° C | 41% | 1015.1 hPa | 0 mm | 3.58 m/s, 218° | - | - |
| 1778018822 | 21.67° C | 40% | 1015.2 hPa | 0 mm | 1.79 m/s, 212° | - | - |
| 1778018222 | 21.11° C | 39% | 1015.2 hPa | 0 mm | 1.34 m/s, 222° | - | - |
| 1778017622 | 21.11° C | 41% | 1015.3 hPa | 0 mm | 3.13 m/s, 271° | - | - |
| 1778017022 | 21.67° C | 42% | 1015.3 hPa | 0 mm | 1.34 m/s, 218° | - | - |
| 1778016422 | 21.11° C | 42% | 1015.5 hPa | 0 mm | 3.58 m/s, 203° | - | - |
| 1778015822 | 21.67° C | 41% | 1015.4 hPa | 0 mm | 3.13 m/s, 178° | - | - |
| 1778015222 | 21.11° C | 42% | 1015.5 hPa | 0 mm | 2.24 m/s, 204° | - | - |
| 1778014622 | 22.22° C | 42% | 1015.5 hPa | 0 mm | 2.68 m/s, 190° | - | - |
| 1778014022 | 21.67° C | 44% | 1015.5 hPa | 0 mm | 2.68 m/s, 263° | - | - |
| 1778013422 | 21.67° C | 45% | 1015.4 hPa | 0 mm | 2.24 m/s, 206° | - | - |
| 1778012822 | 20.56° C | 49% | 1015.5 hPa | 0 mm | 2.24 m/s, 212° | - | - |
* Rain latest hour (hover to see other rain measurements)
** Current wind speed in m/s (hover to see current wind gust speed)